createdAt,value
2023-04-10T00:00:34.986Z,1017.52
2023-04-10T00:01:35.032Z,1017.49
2023-04-10T00:02:35.161Z,1017.45
2023-04-10T00:03:35.136Z,1017.42
2023-04-10T00:04:35.101Z,1017.44
2023-04-10T00:05:35.081Z,1017.43
2023-04-10T00:06:35.093Z,1017.40
2023-04-10T00:07:35.122Z,1017.37
2023-04-10T00:08:35.161Z,1017.40
2023-04-10T00:09:35.178Z,1017.38
2023-04-10T00:10:35.180Z,1017.37
2023-04-10T00:11:35.204Z,1017.32
2023-04-10T00:12:35.220Z,1017.32
2023-04-10T00:13:35.243Z,1017.28
2023-04-10T00:14:35.257Z,1017.27
2023-04-10T00:15:35.278Z,1017.25
2023-04-10T00:16:35.327Z,1017.22
2023-04-10T00:17:35.344Z,1017.26
2023-04-10T00:18:35.345Z,1017.21
2023-04-10T00:19:35.359Z,1017.20
2023-04-10T00:20:35.384Z,1017.20
2023-04-10T00:21:35.398Z,1017.19
2023-04-10T00:22:35.418Z,1017.17
2023-04-10T00:23:35.434Z,1017.13
2023-04-10T00:24:35.454Z,1017.16
2023-04-10T00:25:35.482Z,1017.13
2023-04-10T00:26:35.495Z,1017.13
2023-04-10T00:27:35.539Z,1017.09
2023-04-10T00:28:35.536Z,1017.11
2023-04-10T00:29:35.555Z,1017.07
2023-04-10T00:30:35.581Z,1017.05
2023-04-10T00:31:35.642Z,1017.04
2023-04-10T00:32:35.645Z,1017.07
2023-04-10T00:33:35.638Z,1017.03
2023-04-10T00:34:35.662Z,1017.02
2023-04-10T00:35:35.693Z,1017.02
2023-04-10T00:36:35.698Z,1016.99
2023-04-10T00:37:35.767Z,1016.95
2023-04-10T00:38:35.740Z,1017.01
2023-04-10T00:39:35.755Z,1016.95
2023-04-10T00:40:35.772Z,1017.02
2023-04-10T00:41:35.796Z,1017.01
2023-04-10T00:42:35.811Z,1017.01
2023-04-10T00:43:35.841Z,1017.00
2023-04-10T00:44:35.856Z,1016.99
2023-04-10T00:45:35.891Z,1016.99
2023-04-10T00:46:36.234Z,1016.99
2023-04-10T00:47:35.945Z,1016.97
2023-04-10T00:48:35.932Z,1016.99
2023-04-10T00:49:35.957Z,1016.94
2023-04-10T00:50:36.004Z,1016.88
2023-04-10T00:51:36.013Z,1016.89
2023-04-10T00:52:36.013Z,1016.86
2023-04-10T00:53:36.032Z,1016.84
2023-04-10T00:54:36.050Z,1016.85
2023-04-10T00:55:36.092Z,1016.86
2023-04-10T00:56:36.093Z,1016.83
2023-04-10T00:57:36.113Z,1016.85
2023-04-10T00:58:36.126Z,1016.85
2023-04-10T00:59:36.181Z,1016.79
2023-04-10T01:00:36.165Z,1016.85
2023-04-10T01:01:36.293Z,1016.85
2023-04-10T01:02:36.330Z,1016.85
2023-04-10T01:03:36.483Z,1016.85
2023-04-10T01:04:36.398Z,1016.83
2023-04-10T01:05:36.265Z,1016.86
2023-04-10T01:06:36.282Z,1016.83
2023-04-10T01:07:36.315Z,1016.84
2023-04-10T01:08:36.324Z,1016.85
2023-04-10T01:09:36.343Z,1016.85
2023-04-10T01:10:36.372Z,1016.88
2023-04-10T01:11:36.394Z,1016.86
2023-04-10T01:12:36.410Z,1016.89
2023-04-10T01:13:36.421Z,1016.88
2023-04-10T01:14:36.444Z,1016.84
2023-04-10T01:15:36.459Z,1016.83
2023-04-10T01:16:36.499Z,1016.80
2023-04-10T01:17:36.530Z,1016.80
2023-04-10T01:18:36.519Z,1016.79
2023-04-10T01:19:36.536Z,1016.73
2023-04-10T01:20:36.558Z,1016.74
2023-04-10T01:21:36.583Z,1016.73
2023-04-10T01:22:36.621Z,1016.75
2023-04-10T01:23:36.650Z,1016.77
2023-04-10T01:24:36.635Z,1016.73
2023-04-10T01:25:36.651Z,1016.73
2023-04-10T01:26:36.676Z,1016.73
2023-04-10T01:27:36.693Z,1016.77
2023-04-10T01:28:36.736Z,1016.75
2023-04-10T01:29:36.738Z,1016.75
2023-04-10T01:30:36.770Z,1016.76
2023-04-10T01:31:36.772Z,1016.76
2023-04-10T01:32:36.880Z,1016.78
2023-04-10T01:33:36.807Z,1016.78
2023-04-10T01:34:36.896Z,1016.70
2023-04-10T01:35:36.868Z,1016.76
2023-04-10T01:36:36.866Z,1016.74
2023-04-10T01:37:36.911Z,1016.73
2023-04-10T01:38:36.912Z,1016.72
2023-04-10T01:39:36.930Z,1016.72
2023-04-10T01:40:36.944Z,1016.69
2023-04-10T01:41:36.969Z,1016.69
2023-04-10T01:42:36.988Z,1016.73
2023-04-10T01:43:37.038Z,1016.69
2023-04-10T01:44:37.021Z,1016.71
2023-04-10T01:45:37.063Z,1016.72
2023-04-10T01:46:37.102Z,1016.66
2023-04-10T01:47:37.144Z,1016.71
2023-04-10T01:48:37.101Z,1016.75
2023-04-10T01:49:37.117Z,1016.73
2023-04-10T01:50:37.139Z,1016.75
2023-04-10T01:51:44.342Z,1016.69
2023-04-10T01:53:41.652Z,1016.66
2023-04-10T01:54:41.173Z,1016.71
2023-04-10T01:56:45.186Z,1016.70
2023-04-10T01:57:45.195Z,1016.70
2023-04-10T01:59:49.681Z,1016.68
2023-04-10T02:00:49.218Z,1016.63
2023-04-10T02:02:42.208Z,1016.60
2023-04-10T02:03:42.221Z,1016.60
2023-04-10T02:05:46.626Z,1016.58
2023-04-10T02:06:46.152Z,1016.55
2023-04-10T02:08:50.156Z,1016.49
2023-04-10T02:09:50.166Z,1016.47
2023-04-10T02:11:54.709Z,1016.48
2023-04-10T02:12:54.185Z,1016.41
2023-04-10T02:14:58.189Z,1016.39
2023-04-10T02:15:58.218Z,1016.32
2023-04-10T02:18:02.707Z,1016.31
2023-04-10T02:19:02.209Z,1016.27
2023-04-10T02:20:02.275Z,1016.28
2023-04-10T02:21:02.247Z,1016.31
2023-04-10T02:22:02.259Z,1016.31
2023-04-10T02:23:02.284Z,1016.29
2023-04-10T02:24:02.315Z,1016.32
2023-04-10T02:25:02.321Z,1016.28
2023-04-10T02:26:02.338Z,1016.28
2023-04-10T02:27:02.357Z,1016.30
2023-04-10T02:28:02.410Z,1016.30
2023-04-10T02:29:02.396Z,1016.29
2023-04-10T02:30:02.467Z,1016.35
2023-04-10T02:31:02.463Z,1016.33
2023-04-10T02:32:02.464Z,1016.37
2023-04-10T02:33:02.572Z,1016.38
2023-04-10T02:34:02.550Z,1016.37
2023-04-10T02:35:02.531Z,1016.38
2023-04-10T02:36:02.610Z,1016.39
2023-04-10T02:37:02.567Z,1016.41
2023-04-10T02:38:02.562Z,1016.39
2023-04-10T02:39:02.589Z,1016.39
2023-04-10T02:40:02.611Z,1016.36
2023-04-10T02:41:02.627Z,1016.39
2023-04-10T02:42:02.639Z,1016.40
2023-04-10T02:43:02.660Z,1016.36
2023-04-10T02:44:02.722Z,1016.32
2023-04-10T02:45:02.704Z,1016.33
2023-04-10T02:46:02.722Z,1016.33
2023-04-10T02:47:02.859Z,1016.29
2023-04-10T02:48:02.836Z,1016.30
2023-04-10T02:49:02.782Z,1016.29
2023-04-10T02:50:02.802Z,1016.30
2023-04-10T02:51:02.846Z,1016.30
2023-04-10T02:52:02.837Z,1016.29
2023-04-10T02:53:02.858Z,1016.28
2023-04-10T02:54:02.876Z,1016.28
2023-04-10T02:55:02.897Z,1016.29
2023-04-10T02:56:02.926Z,1016.28
2023-04-10T02:57:02.960Z,1016.25
2023-04-10T02:58:02.953Z,1016.26
2023-04-10T02:59:02.968Z,1016.26
2023-04-10T03:00:02.983Z,1016.28
2023-04-10T03:01:03.004Z,1016.29
2023-04-10T03:02:03.101Z,1016.28
2023-04-10T03:03:03.178Z,1016.31
2023-04-10T03:04:03.148Z,1016.31
2023-04-10T03:05:03.083Z,1016.31
2023-04-10T03:06:03.108Z,1016.27
2023-04-10T03:07:03.129Z,1016.26
2023-04-10T03:08:03.138Z,1016.23
2023-04-10T03:09:03.153Z,1016.22
2023-04-10T03:10:03.173Z,1016.21
2023-04-10T03:11:03.206Z,1016.21
2023-04-10T03:12:03.212Z,1016.22
2023-04-10T03:13:03.238Z,1016.17
2023-04-10T03:14:03.249Z,1016.16
2023-04-10T03:15:03.277Z,1016.20
2023-04-10T03:16:03.338Z,1016.17
2023-04-10T03:17:03.312Z,1016.17
2023-04-10T03:18:03.382Z,1016.18
2023-04-10T03:19:03.342Z,1016.14
2023-04-10T03:20:03.372Z,1016.14
2023-04-10T03:21:03.393Z,1016.14
2023-04-10T03:22:03.404Z,1016.16
2023-04-10T03:23:03.420Z,1016.15
2023-04-10T03:24:03.437Z,1016.12
2023-04-10T03:25:03.457Z,1016.11
2023-04-10T03:26:03.494Z,1016.14
2023-04-10T03:27:03.516Z,1016.15
2023-04-10T03:28:03.534Z,1016.07
2023-04-10T03:29:03.534Z,1016.11
2023-04-10T03:30:03.553Z,1016.07
2023-04-10T03:31:03.640Z,1016.06
2023-04-10T03:32:03.672Z,1016.03
2023-04-10T03:33:03.638Z,1016.07
2023-04-10T03:34:03.675Z,1016.00
2023-04-10T03:35:03.646Z,1015.95
2023-04-10T03:36:03.734Z,1015.95
2023-04-10T03:37:03.689Z,1015.92
2023-04-10T03:38:03.711Z,1015.96
2023-04-10T03:39:03.720Z,1015.95
2023-04-10T03:40:03.739Z,1015.93
2023-04-10T03:41:03.766Z,1015.94
2023-04-10T03:42:03.780Z,1015.95
2023-04-10T03:43:03.803Z,1015.91
2023-04-10T03:44:03.833Z,1015.92
2023-04-10T03:45:03.838Z,1015.89
2023-04-10T03:46:03.856Z,1015.87
2023-04-10T03:47:03.959Z,1015.86
2023-04-10T03:48:03.997Z,1015.86
2023-04-10T03:49:03.909Z,1015.86
2023-04-10T03:50:03.943Z,1015.84
2023-04-10T03:51:03.958Z,1015.85
2023-04-10T03:52:03.967Z,1015.83
2023-04-10T03:53:03.981Z,1015.81
2023-04-10T03:54:04.008Z,1015.82
2023-04-10T03:55:04.021Z,1015.80
2023-04-10T03:56:04.042Z,1015.85
2023-04-10T03:57:04.060Z,1015.84
2023-04-10T03:58:04.072Z,1015.82
2023-04-10T03:59:04.095Z,1015.83
2023-04-10T04:00:04.113Z,1015.82
2023-04-10T04:01:04.138Z,1015.77
2023-04-10T04:02:04.219Z,1015.80
2023-04-10T04:03:04.275Z,1015.80
2023-04-10T04:04:04.356Z,1015.79
2023-04-10T04:05:04.307Z,1015.80
2023-04-10T04:06:04.259Z,1015.79
2023-04-10T04:07:04.269Z,1015.78
2023-04-10T04:08:04.272Z,1015.78
2023-04-10T04:09:04.282Z,1015.78
2023-04-10T04:10:04.306Z,1015.76
2023-04-10T04:11:04.316Z,1015.77
2023-04-10T04:12:04.336Z,1015.85
2023-04-10T04:13:04.356Z,1015.80
2023-04-10T04:14:04.389Z,1015.77
2023-04-10T04:15:04.392Z,1015.74
2023-04-10T04:16:04.411Z,1015.81
2023-04-10T04:17:04.499Z,1015.80
2023-04-10T04:18:04.473Z,1015.80
2023-04-10T04:19:04.467Z,1015.85
2023-04-10T04:20:04.493Z,1015.85
2023-04-10T04:21:04.504Z,1015.83
2023-04-10T04:22:04.546Z,1015.83
2023-04-10T04:23:04.544Z,1015.83
2023-04-10T04:24:04.569Z,1015.81
2023-04-10T04:25:04.589Z,1015.81
2023-04-10T04:26:04.600Z,1015.86
2023-04-10T04:27:04.617Z,1015.84
2023-04-10T04:28:04.640Z,1015.89
2023-04-10T04:29:04.681Z,1015.84
2023-04-10T04:30:04.703Z,1015.86
2023-04-10T04:31:04.700Z,1015.86
2023-04-10T04:32:04.785Z,1015.83
2023-04-10T04:33:04.821Z,1015.84
2023-04-10T04:34:04.756Z,1015.86
2023-04-10T04:35:04.773Z,1015.83
2023-04-10T04:36:04.861Z,1015.89
2023-04-10T04:37:04.815Z,1015.89
2023-04-10T04:38:04.825Z,1015.92
2023-04-10T04:39:04.863Z,1015.92
2023-04-10T04:40:04.872Z,1015.96
2023-04-10T04:41:04.885Z,1015.93
2023-04-10T04:42:04.902Z,1015.95
2023-04-10T04:43:04.922Z,1015.97
2023-04-10T04:44:04.960Z,1015.92
2023-04-10T04:45:04.962Z,1015.96
2023-04-10T04:46:04.999Z,1015.98
2023-04-10T04:47:05.000Z,1015.95
2023-04-10T04:48:05.058Z,1015.96
2023-04-10T04:49:05.039Z,1015.94
2023-04-10T04:50:05.065Z,1015.99
2023-04-10T04:51:05.086Z,1015.99
2023-04-10T04:52:05.095Z,1016.00
2023-04-10T04:53:06.698Z,1015.98
2023-04-10T04:54:05.132Z,1015.95
2023-04-10T04:55:05.158Z,1015.92
2023-04-10T04:56:05.183Z,1015.90
2023-04-10T04:57:05.195Z,1015.89
2023-04-10T04:58:05.208Z,1015.89
2023-04-10T04:59:05.225Z,1015.88
2023-04-10T05:00:05.248Z,1015.87
2023-04-10T05:01:05.412Z,1015.92
2023-04-10T05:02:05.293Z,1015.90
2023-04-10T05:03:05.392Z,1015.90
2023-04-10T05:04:05.474Z,1015.92
2023-04-10T05:05:05.338Z,1015.89
2023-04-10T05:06:05.358Z,1015.88
2023-04-10T05:07:05.380Z,1015.87
2023-04-10T05:08:05.395Z,1015.87
2023-04-10T05:09:05.425Z,1015.89
2023-04-10T05:10:05.437Z,1015.85
2023-04-10T05:11:05.453Z,1015.84
2023-04-10T05:12:05.470Z,1015.86
2023-04-10T05:13:05.502Z,1015.85
2023-04-10T05:14:05.519Z,1015.88
2023-04-10T05:15:05.528Z,1015.86
2023-04-10T05:16:05.595Z,1015.87
2023-04-10T05:17:05.568Z,1015.83
2023-04-10T05:18:05.753Z,1015.85
2023-04-10T05:19:05.609Z,1015.87
2023-04-10T05:20:05.625Z,1015.81
2023-04-10T05:21:05.647Z,1015.81
2023-04-10T05:22:05.659Z,1015.84
2023-04-10T05:23:05.681Z,1015.80
2023-04-10T05:24:05.701Z,1015.79
2023-04-10T05:25:05.727Z,1015.80
2023-04-10T05:26:05.740Z,1015.79
2023-04-10T05:27:05.761Z,1015.80
2023-04-10T05:28:05.782Z,1015.76
2023-04-10T05:29:05.807Z,1015.79
2023-04-10T05:30:05.814Z,1015.77
2023-04-10T05:31:05.864Z,1015.78
2023-04-10T05:32:05.858Z,1015.77
2023-04-10T05:33:05.873Z,1015.76
2023-04-10T05:34:05.896Z,1015.78
2023-04-10T05:35:05.915Z,1015.80
2023-04-10T05:36:06.000Z,1015.77
2023-04-10T05:37:05.963Z,1015.82
2023-04-10T05:38:05.976Z,1015.80
2023-04-10T05:39:06.002Z,1015.76
2023-04-10T05:40:06.036Z,1015.80
2023-04-10T05:41:06.050Z,1015.79
2023-04-10T05:42:06.059Z,1015.81
2023-04-10T05:43:06.077Z,1015.85
2023-04-10T05:44:06.098Z,1015.85
2023-04-10T05:45:06.124Z,1015.85
2023-04-10T05:46:06.197Z,1015.87
2023-04-10T05:47:06.155Z,1015.90
2023-04-10T05:48:06.249Z,1015.88
2023-04-10T05:49:06.204Z,1015.88
2023-04-10T05:50:06.216Z,1015.91
2023-04-10T05:51:06.241Z,1015.92
2023-04-10T05:52:06.259Z,1015.90
2023-04-10T05:53:06.279Z,1015.87
2023-04-10T05:54:06.303Z,1015.89
2023-04-10T05:55:06.339Z,1015.88
2023-04-10T05:56:06.345Z,1015.88
2023-04-10T05:57:06.360Z,1015.86
2023-04-10T05:58:06.380Z,1015.84
2023-04-10T05:59:06.404Z,1015.86
2023-04-10T06:00:06.424Z,1015.87
2023-04-10T06:01:06.444Z,1015.87
2023-04-10T06:02:06.546Z,1015.86
2023-04-10T06:03:06.532Z,1015.88
2023-04-10T06:04:06.598Z,1015.85
2023-04-10T06:05:06.611Z,1015.78
2023-04-10T06:06:06.552Z,1015.79
2023-04-10T06:07:06.570Z,1015.76
2023-04-10T06:08:06.591Z,1015.76
2023-04-10T06:09:06.613Z,1015.79
2023-04-10T06:10:06.627Z,1015.77
2023-04-10T06:11:06.670Z,1015.78
2023-04-10T06:12:06.674Z,1015.77
2023-04-10T06:13:08.230Z,1015.74
2023-04-10T06:14:06.720Z,1015.76
2023-04-10T06:15:06.740Z,1015.71
2023-04-10T06:16:06.768Z,1015.70
2023-04-10T06:17:06.791Z,1015.68
2023-04-10T06:18:06.805Z,1015.67
2023-04-10T06:19:06.847Z,1015.65
2023-04-10T06:20:06.853Z,1015.66
2023-04-10T06:21:06.876Z,1015.66
2023-04-10T06:22:06.892Z,1015.64
2023-04-10T06:23:06.923Z,1015.65
2023-04-10T06:24:06.934Z,1015.60
2023-04-10T06:25:07.317Z,1015.57
2023-04-10T06:26:06.973Z,1015.59
2023-04-10T06:27:06.996Z,1015.54
2023-04-10T06:28:07.021Z,1015.52
2023-04-10T06:29:07.044Z,1015.51
2023-04-10T06:30:07.073Z,1015.54
2023-04-10T06:31:07.185Z,1015.49
2023-04-10T06:32:07.112Z,1015.53
2023-04-10T06:33:07.140Z,1015.54
2023-04-10T06:34:07.150Z,1015.49
2023-04-10T06:35:07.176Z,1015.49
2023-04-10T06:36:07.212Z,1015.50
2023-04-10T06:37:07.230Z,1015.45
2023-04-10T06:38:07.238Z,1015.47
2023-04-10T06:39:07.513Z,1015.48
2023-04-10T06:40:07.287Z,1015.50
2023-04-10T06:41:07.301Z,1015.50
2023-04-10T06:42:07.322Z,1015.45
2023-04-10T06:43:07.359Z,1015.48
2023-04-10T06:44:07.385Z,1015.44
2023-04-10T06:45:07.389Z,1015.47
2023-04-10T06:46:07.413Z,1015.49
2023-04-10T06:47:07.495Z,1015.47
2023-04-10T06:48:07.490Z,1015.52
2023-04-10T06:49:07.481Z,1015.52
2023-04-10T06:50:07.507Z,1015.49
2023-04-10T06:51:07.621Z,1015.50
2023-04-10T06:52:07.561Z,1015.50
2023-04-10T06:53:07.575Z,1015.51
2023-04-10T06:54:07.589Z,1015.52
2023-04-10T06:55:07.620Z,1015.52
2023-04-10T06:56:07.654Z,1015.52
2023-04-10T06:57:07.662Z,1015.50
2023-04-10T06:58:07.690Z,1015.51
2023-04-10T06:59:07.716Z,1015.47
2023-04-10T07:00:07.731Z,1015.47
2023-04-10T07:01:07.807Z,1015.48
2023-04-10T07:02:07.824Z,1015.45
2023-04-10T07:03:07.857Z,1015.44
2023-04-10T07:04:07.985Z,1015.48
2023-04-10T07:05:07.842Z,1015.41
2023-04-10T07:06:07.866Z,1015.47
2023-04-10T07:07:07.890Z,1015.38
2023-04-10T07:08:07.915Z,1015.40
2023-04-10T07:09:07.936Z,1015.41
2023-04-10T07:10:07.964Z,1015.40
2023-04-10T07:11:07.985Z,1015.44
2023-04-10T07:12:08.012Z,1015.42
2023-04-10T07:13:08.021Z,1015.41
2023-04-10T07:14:08.042Z,1015.39
2023-04-10T07:15:08.076Z,1015.38
2023-04-10T07:16:08.111Z,1015.40
2023-04-10T07:17:08.115Z,1015.38
2023-04-10T07:18:08.157Z,1015.35
2023-04-10T07:19:08.162Z,1015.34
2023-04-10T07:20:08.188Z,1015.36
2023-04-10T07:21:08.204Z,1015.29
2023-04-10T07:22:08.227Z,1015.29
2023-04-10T07:23:08.247Z,1015.29
2023-04-10T07:24:08.270Z,1015.27
2023-04-10T07:25:08.290Z,1015.27
2023-04-10T07:26:08.316Z,1015.23
2023-04-10T07:27:08.342Z,1015.20
2023-04-10T07:28:08.363Z,1015.19
2023-04-10T07:29:08.389Z,1015.16
2023-04-10T07:30:08.415Z,1015.17
2023-04-10T07:31:08.433Z,1015.15
2023-04-10T07:32:08.525Z,1015.15
2023-04-10T07:33:08.599Z,1015.12
2023-04-10T07:34:08.497Z,1015.13
2023-04-10T07:35:08.519Z,1015.12
2023-04-10T07:36:08.615Z,1015.13
2023-04-10T07:37:08.574Z,1015.13
2023-04-10T07:38:08.591Z,1015.12
2023-04-10T07:39:08.613Z,1015.09
2023-04-10T07:40:08.633Z,1015.07
2023-04-10T07:41:08.653Z,1015.01
2023-04-10T07:42:08.677Z,1015.05
2023-04-10T07:43:08.697Z,1015.05
2023-04-10T07:44:08.737Z,1015.02
2023-04-10T07:45:08.747Z,1015.00
2023-04-10T07:46:08.832Z,1014.97
2023-04-10T07:47:08.790Z,1014.98
2023-04-10T07:48:08.837Z,1015.00
2023-04-10T07:49:09.111Z,1014.94
2023-04-10T07:50:08.863Z,1014.97
2023-04-10T07:51:08.885Z,1014.96
2023-04-10T07:52:08.912Z,1014.95
2023-04-10T07:53:08.935Z,1014.94
2023-04-10T07:54:08.952Z,1014.93
2023-04-10T07:55:08.982Z,1014.88
2023-04-10T07:56:09.006Z,1014.89
2023-04-10T07:57:09.040Z,1014.88
2023-04-10T07:58:09.046Z,1014.84
2023-04-10T07:59:09.072Z,1014.86
2023-04-10T08:00:09.102Z,1014.88
2023-04-10T08:01:09.116Z,1014.82
2023-04-10T08:02:09.215Z,1014.77
2023-04-10T08:03:09.340Z,1014.77
2023-04-10T08:04:09.353Z,1014.79
2023-04-10T08:05:09.251Z,1014.77
2023-04-10T08:06:09.240Z,1014.74
2023-04-10T08:07:09.270Z,1014.69
2023-04-10T08:08:09.278Z,1014.75
2023-04-10T08:09:09.306Z,1014.76
2023-04-10T08:10:09.332Z,1014.74
2023-04-10T08:11:09.356Z,1014.65
2023-04-10T08:12:09.375Z,1014.68
2023-04-10T08:13:09.400Z,1014.67
2023-04-10T08:14:09.422Z,1014.69
2023-04-10T08:15:09.451Z,1014.68
2023-04-10T08:16:09.472Z,1014.64
2023-04-10T08:17:09.538Z,1014.66
2023-04-10T08:18:09.520Z,1014.64
2023-04-10T08:19:09.555Z,1014.61
2023-04-10T08:20:09.573Z,1014.59
2023-04-10T08:21:09.595Z,1014.56
2023-04-10T08:22:09.628Z,1014.52
2023-04-10T08:24:09.670Z,1014.54
2023-04-10T08:25:09.695Z,1014.54
2023-04-10T08:26:09.716Z,1014.54
2023-04-10T08:27:09.740Z,1014.56
2023-04-10T08:28:09.765Z,1014.49
2023-04-10T08:29:09.800Z,1014.54
2023-04-10T08:30:09.831Z,1014.46
2023-04-10T08:31:09.904Z,1014.46
2023-04-10T08:32:09.877Z,1014.50
2023-04-10T08:33:09.896Z,1014.50
2023-04-10T08:34:09.922Z,1014.48
2023-04-10T08:35:09.962Z,1014.46
2023-04-10T08:36:10.036Z,1014.41
2023-04-10T08:37:11.361Z,1014.42
2023-04-10T08:38:14.200Z,1014.43
2023-04-10T08:39:10.048Z,1014.42
2023-04-10T08:40:10.085Z,1014.40
2023-04-10T08:41:10.104Z,1014.33
2023-04-10T08:42:10.112Z,1014.36
2023-04-10T08:43:10.146Z,1014.30
2023-04-10T08:44:10.170Z,1014.28
2023-04-10T08:45:10.234Z,1014.26
2023-04-10T08:46:10.238Z,1014.31
2023-04-10T08:47:10.245Z,1014.21
2023-04-10T08:48:10.273Z,1014.22
2023-04-10T08:49:10.297Z,1014.19
2023-04-10T08:50:10.322Z,1014.22
2023-04-10T08:51:15.602Z,1014.18
2023-04-10T08:52:10.372Z,1014.17
2023-04-10T08:53:10.397Z,1014.14
2023-04-10T08:54:10.422Z,1014.11
2023-04-10T08:55:10.449Z,1014.09
2023-04-10T08:56:10.477Z,1014.09
2023-04-10T08:57:11.130Z,1014.00
2023-04-10T08:58:10.525Z,1013.99
2023-04-10T08:59:10.558Z,1013.98
2023-04-10T09:01:10.633Z,1013.96
2023-04-10T09:02:10.719Z,1013.91
2023-04-10T09:03:10.740Z,1013.85
2023-04-10T09:04:10.810Z,1013.88
2023-04-10T09:05:10.707Z,1013.85
2023-04-10T09:06:10.729Z,1013.83
2023-04-10T09:07:10.760Z,1013.76
2023-04-10T09:08:10.795Z,1013.76
2023-04-10T09:09:10.809Z,1013.74
2023-04-10T09:10:10.834Z,1013.67
2023-04-10T09:11:10.864Z,1013.70
2023-04-10T09:12:10.896Z,1013.63
2023-04-10T09:13:10.917Z,1013.60
2023-04-10T09:14:10.935Z,1013.60
2023-04-10T09:15:10.960Z,1013.57
2023-04-10T09:16:11.017Z,1013.55
2023-04-10T09:17:11.069Z,1013.57
2023-04-10T09:18:11.101Z,1013.57
2023-04-10T09:19:11.087Z,1013.59
2023-04-10T09:20:11.088Z,1013.54
2023-04-10T09:21:11.118Z,1013.56
2023-04-10T09:22:11.161Z,1013.48
2023-04-10T09:23:11.164Z,1013.49
2023-04-10T09:24:11.191Z,1013.48
2023-04-10T09:25:11.217Z,1013.44
2023-04-10T09:26:11.241Z,1013.48
2023-04-10T09:27:11.276Z,1013.46
2023-04-10T09:28:11.291Z,1013.39
2023-04-10T09:29:11.321Z,1013.47
2023-04-10T09:30:11.338Z,1013.38
2023-04-10T09:31:11.425Z,1013.38
2023-04-10T09:32:11.395Z,1013.39
2023-04-10T09:33:11.421Z,1013.35
2023-04-10T09:34:11.468Z,1013.35
2023-04-10T09:35:11.478Z,1013.33
2023-04-10T09:36:11.517Z,1013.30
2023-04-10T09:37:11.522Z,1013.24
2023-04-10T09:38:11.548Z,1013.29
2023-04-10T09:39:11.580Z,1013.22
2023-04-10T09:40:11.613Z,1013.25
2023-04-10T09:41:11.625Z,1013.24
2023-04-10T09:42:11.669Z,1013.17
2023-04-10T09:43:11.683Z,1013.20
2023-04-10T09:44:11.700Z,1013.15
2023-04-10T09:45:11.735Z,1013.13
2023-04-10T09:46:11.799Z,1013.13
2023-04-10T09:47:11.781Z,1013.13
2023-04-10T09:48:11.807Z,1013.16
2023-04-10T09:49:11.836Z,1013.06
2023-04-10T09:50:11.856Z,1013.10
2023-04-10T09:51:11.884Z,1013.15
2023-04-10T09:52:11.911Z,1013.10
2023-04-10T09:53:11.937Z,1013.08
2023-04-10T09:54:11.965Z,1013.08
2023-04-10T09:55:12.002Z,1013.03
2023-04-10T09:56:12.013Z,1012.99
2023-04-10T09:57:12.041Z,1012.93
2023-04-10T09:58:12.072Z,1012.91
2023-04-10T09:59:12.093Z,1012.91
2023-04-10T10:00:12.116Z,1012.89
2023-04-10T10:01:12.142Z,1012.87
2023-04-10T10:02:12.228Z,1012.89
2023-04-10T10:03:12.372Z,1012.87
2023-04-10T10:04:12.362Z,1012.86
2023-04-10T10:05:12.404Z,1012.88
2023-04-10T10:06:12.272Z,1012.78
2023-04-10T10:07:12.299Z,1012.72
2023-04-10T10:08:12.354Z,1012.74
2023-04-10T10:09:12.353Z,1012.74
2023-04-10T10:10:12.376Z,1012.71
2023-04-10T10:11:12.411Z,1012.71
2023-04-10T10:12:12.437Z,1012.56
2023-04-10T10:13:12.455Z,1012.73
2023-04-10T10:14:12.492Z,1012.79
2023-04-10T10:15:12.521Z,1012.72
2023-04-10T10:16:12.552Z,1012.65
2023-04-10T10:17:12.557Z,1012.71
2023-04-10T10:18:12.587Z,1012.68
2023-04-10T10:19:12.621Z,1012.64
2023-04-10T10:20:12.647Z,1012.59
2023-04-10T10:21:12.670Z,1012.56
2023-04-10T10:22:12.699Z,1012.69
2023-04-10T10:23:12.726Z,1012.65
2023-04-10T10:24:12.752Z,1012.64
2023-04-10T10:25:12.791Z,1012.64
2023-04-10T10:26:12.808Z,1012.70
2023-04-10T10:27:12.830Z,1012.70
2023-04-10T10:28:12.862Z,1012.58
2023-04-10T10:29:12.886Z,1012.68
2023-04-10T10:30:28.366Z,1012.60
2023-04-10T10:31:13.001Z,1012.60
2023-04-10T10:32:12.965Z,1012.56
2023-04-10T10:33:12.994Z,1012.57
2023-04-10T10:34:13.035Z,1012.56
2023-04-10T10:35:13.049Z,1012.53
2023-04-10T10:36:13.098Z,1012.48
2023-04-10T10:37:13.103Z,1012.46
2023-04-10T10:38:13.129Z,1012.50
2023-04-10T10:39:13.159Z,1012.47
2023-04-10T10:40:13.188Z,1012.51
2023-04-10T10:41:13.222Z,1012.43
2023-04-10T10:42:13.251Z,1012.41
2023-04-10T10:43:13.277Z,1012.40
2023-04-10T10:44:13.333Z,1012.39
2023-04-10T10:45:13.326Z,1012.37
2023-04-10T10:46:13.391Z,1012.32
2023-04-10T10:47:13.395Z,1012.30
2023-04-10T10:48:13.414Z,1012.28
2023-04-10T10:49:13.438Z,1012.31
2023-04-10T10:50:13.471Z,1012.27
2023-04-10T10:51:13.483Z,1012.30
2023-04-10T10:52:13.518Z,1012.37
2023-04-10T10:53:13.544Z,1012.27
2023-04-10T10:54:13.572Z,1012.24
2023-04-10T10:55:13.599Z,1012.21
2023-04-10T10:56:13.628Z,1012.30
2023-04-10T10:57:13.656Z,1012.30
2023-04-10T10:58:13.683Z,1012.27
2023-04-10T10:59:13.714Z,1012.22
2023-04-10T11:00:13.745Z,1012.25
2023-04-10T11:01:13.794Z,1012.29
2023-04-10T11:02:13.860Z,1012.19
2023-04-10T11:03:13.977Z,1012.19
2023-04-10T11:04:13.883Z,1012.13
2023-04-10T11:05:13.882Z,1012.20
2023-04-10T11:06:13.916Z,1012.16
2023-04-10T11:07:13.944Z,1012.11
2023-04-10T11:08:13.973Z,1012.10
2023-04-10T11:09:13.998Z,1012.08
2023-04-10T11:10:14.028Z,1012.08
2023-04-10T11:11:14.055Z,1011.93
2023-04-10T11:12:14.086Z,1012.00
2023-04-10T11:13:14.115Z,1011.91
2023-04-10T11:14:14.144Z,1011.92
2023-04-10T11:15:14.169Z,1011.88
2023-04-10T11:16:14.219Z,1011.82
2023-04-10T11:17:14.229Z,1011.80
2023-04-10T11:18:14.257Z,1011.78
2023-04-10T11:19:15.803Z,1011.75
2023-04-10T11:20:14.395Z,1011.73
2023-04-10T11:21:14.343Z,1011.71
2023-04-10T11:22:14.392Z,1011.69
2023-04-10T11:23:14.405Z,1011.73
2023-04-10T11:24:14.438Z,1011.70
2023-04-10T11:25:14.466Z,1011.68
2023-04-10T11:26:14.501Z,1011.64
2023-04-10T11:27:14.518Z,1011.63
2023-04-10T11:28:14.548Z,1011.67
2023-04-10T11:29:14.589Z,1011.61
2023-04-10T11:30:14.615Z,1011.59
2023-04-10T11:31:14.634Z,1011.55
2023-04-10T11:32:14.792Z,1011.55
2023-04-10T11:33:14.689Z,1011.53
2023-04-10T11:34:14.719Z,1011.54
2023-04-10T11:35:14.754Z,1011.57
2023-04-10T11:36:14.773Z,1011.55
2023-04-10T11:37:14.803Z,1011.45
2023-04-10T11:38:14.843Z,1011.55
2023-04-10T11:39:14.863Z,1011.48
2023-04-10T11:40:14.906Z,1011.46
2023-04-10T11:41:14.918Z,1011.39
2023-04-10T11:42:14.944Z,1011.37
2023-04-10T11:43:15.041Z,1011.32
2023-04-10T11:44:15.003Z,1011.32
2023-04-10T11:45:15.038Z,1011.35
2023-04-10T11:46:15.096Z,1011.35
2023-04-10T11:47:15.092Z,1011.33
2023-04-10T11:48:15.133Z,1011.29
2023-04-10T11:49:15.144Z,1011.27
2023-04-10T11:50:15.183Z,1011.23
2023-04-10T11:51:15.240Z,1011.18
2023-04-10T11:52:15.239Z,1011.18
2023-04-10T11:53:15.265Z,1011.17
2023-04-10T11:54:15.292Z,1011.19
2023-04-10T11:55:15.322Z,1011.14
2023-04-10T11:56:15.353Z,1011.08
2023-04-10T11:57:15.382Z,1011.08
2023-04-10T11:58:15.411Z,1011.02
2023-04-10T11:59:15.439Z,1011.06
2023-04-10T12:00:15.479Z,1010.99
2023-04-10T12:01:15.522Z,1011.01
2023-04-10T12:02:15.671Z,1011.01
2023-04-10T12:03:15.737Z,1010.96
2023-04-10T12:04:15.790Z,1010.87
2023-04-10T12:05:15.724Z,1010.88
2023-04-10T12:06:15.682Z,1010.86
2023-04-10T12:07:15.689Z,1010.83
2023-04-10T12:08:15.705Z,1010.83
2023-04-10T12:09:15.753Z,1010.79
2023-04-10T12:10:15.778Z,1010.79
2023-04-10T12:11:15.792Z,1010.76
2023-04-10T12:12:15.825Z,1010.74
2023-04-10T12:13:15.854Z,1010.61
2023-04-10T12:14:15.879Z,1010.70
2023-04-10T12:15:15.921Z,1010.62
2023-04-10T12:16:16.101Z,1010.63
2023-04-10T12:17:15.964Z,1010.59